sensor_id;sensor_type;location;lat;lon;timestamp;P1;durP1;ratioP1;P2;durP2;ratioP2
8401;SDS011;4238;48.404;9.498;2022-07-29T00:01:53;6.63;;;6.05;;
8401;SDS011;4238;48.404;9.498;2022-07-29T00:04:20;5.70;;;5.30;;
8401;SDS011;4238;48.404;9.498;2022-07-29T00:06:47;5.80;;;5.30;;
8401;SDS011;4238;48.404;9.498;2022-07-29T00:09:15;5.68;;;5.18;;
8401;SDS011;4238;48.404;9.498;2022-07-29T00:11:42;5.68;;;5.18;;
8401;SDS011;4238;48.404;9.498;2022-07-29T00:14:09;6.22;;;5.35;;
8401;SDS011;4238;48.404;9.498;2022-07-29T00:16:36;5.82;;;5.40;;
8401;SDS011;4238;48.404;9.498;2022-07-29T00:19:03;5.65;;;5.25;;
8401;SDS011;4238;48.404;9.498;2022-07-29T00:21:30;6.50;;;5.95;;
8401;SDS011;4238;48.404;9.498;2022-07-29T00:23:57;7.20;;;6.60;;
8401;SDS011;4238;48.404;9.498;2022-07-29T00:26:25;6.60;;;6.00;;
8401;SDS011;4238;48.404;9.498;2022-07-29T00:28:56;7.05;;;6.45;;
8401;SDS011;4238;48.404;9.498;2022-07-29T00:31:23;7.18;;;6.57;;
8401;SDS011;4238;48.404;9.498;2022-07-29T00:33:50;7.60;;;7.00;;
8401;SDS011;4238;48.404;9.498;2022-07-29T00:36:17;6.80;;;6.20;;
8401;SDS011;4238;48.404;9.498;2022-07-29T00:38:45;7.60;;;6.82;;
8401;SDS011;4238;48.404;9.498;2022-07-29T00:41:12;8.02;;;7.43;;
8401;SDS011;4238;48.404;9.498;2022-07-29T00:43:41;8.80;;;7.90;;
8401;SDS011;4238;48.404;9.498;2022-07-29T00:46:08;8.05;;;7.35;;
8401;SDS011;4238;48.404;9.498;2022-07-29T00:48:35;8.20;;;7.50;;
8401;SDS011;4238;48.404;9.498;2022-07-29T00:51:02;7.80;;;7.18;;
8401;SDS011;4238;48.404;9.498;2022-07-29T00:53:31;8.80;;;8.10;;
8401;SDS011;4238;48.404;9.498;2022-07-29T00:55:58;8.25;;;7.50;;
8401;SDS011;4238;48.404;9.498;2022-07-29T00:58:25;9.88;;;8.95;;
8401;SDS011;4238;48.404;9.498;2022-07-29T01:00:54;9.27;;;8.55;;
8401;SDS011;4238;48.404;9.498;2022-07-29T01:03:21;9.57;;;8.77;;
8401;SDS011;4238;48.404;9.498;2022-07-29T01:05:48;10.20;;;9.30;;
8401;SDS011;4238;48.404;9.498;2022-07-29T01:08:15;10.73;;;9.73;;
8401;SDS011;4238;48.404;9.498;2022-07-29T01:10:43;11.23;;;10.43;;
8401;SDS011;4238;48.404;9.498;2022-07-29T01:13:11;10.80;;;10.00;;
8401;SDS011;4238;48.404;9.498;2022-07-29T01:15:41;11.40;;;10.10;;
8401;SDS011;4238;48.404;9.498;2022-07-29T01:18:15;10.55;;;9.65;;
8401;SDS011;4238;48.404;9.498;2022-07-29T01:20:49;10.90;;;9.80;;
8401;SDS011;4238;48.404;9.498;2022-07-29T01:23:46;11.20;;;10.30;;
8401;SDS011;4238;48.404;9.498;2022-07-29T01:26:34;10.90;;;10.00;;
8401;SDS011;4238;48.404;9.498;2022-07-29T01:34:24;11.25;;;10.20;;
8401;SDS011;4238;48.404;9.498;2022-07-29T01:36:57;11.35;;;10.25;;
8401;SDS011;4238;48.404;9.498;2022-07-29T01:39:31;11.68;;;10.68;;
8401;SDS011;4238;48.404;9.498;2022-07-29T01:42:12;11.25;;;10.32;;
8401;SDS011;4238;48.404;9.498;2022-07-29T01:44:45;11.10;;;10.30;;
8401;SDS011;4238;48.404;9.498;2022-07-29T01:47:20;12.88;;;11.88;;
8401;SDS011;4238;48.404;9.498;2022-07-29T01:49:53;11.35;;;10.45;;
8401;SDS011;4238;48.404;9.498;2022-07-29T01:52:23;11.52;;;10.60;;
8401;SDS011;4238;48.404;9.498;2022-07-29T01:54:57;11.38;;;10.38;;
8401;SDS011;4238;48.404;9.498;2022-07-29T01:57:29;10.20;;;9.30;;
8401;SDS011;4238;48.404;9.498;2022-07-29T01:59:59;10.45;;;9.65;;
8401;SDS011;4238;48.404;9.498;2022-07-29T02:02:28;10.02;;;9.13;;
8401;SDS011;4238;48.404;9.498;2022-07-29T02:04:59;10.65;;;9.75;;
8401;SDS011;4238;48.404;9.498;2022-07-29T02:07:28;9.00;;;8.27;;
8401;SDS011;4238;48.404;9.498;2022-07-29T02:09:57;8.57;;;7.65;;
8401;SDS011;4238;48.404;9.498;2022-07-29T02:12:26;8.95;;;8.15;;
8401;SDS011;4238;48.404;9.498;2022-07-29T02:14:55;8.63;;;7.82;;
8401;SDS011;4238;48.404;9.498;2022-07-29T02:17:26;9.20;;;8.40;;
8401;SDS011;4238;48.404;9.498;2022-07-29T02:19:59;8.18;;;7.47;;
8401;SDS011;4238;48.404;9.498;2022-07-29T02:22:29;8.85;;;8.15;;
8401;SDS011;4238;48.404;9.498;2022-07-29T02:24:57;8.50;;;7.80;;
8401;SDS011;4238;48.404;9.498;2022-07-29T02:27:25;8.57;;;7.88;;
8401;SDS011;4238;48.404;9.498;2022-07-29T02:29:54;8.98;;;8.20;;
8401;SDS011;4238;48.404;9.498;2022-07-29T02:32:24;8.90;;;8.20;;
8401;SDS011;4238;48.404;9.498;2022-07-29T02:34:53;8.85;;;8.13;;
8401;SDS011;4238;48.404;9.498;2022-07-29T02:37:23;11.07;;;9.35;;
8401;SDS011;4238;48.404;9.498;2022-07-29T02:39:51;10.30;;;9.48;;
8401;SDS011;4238;48.404;9.498;2022-07-29T02:42:20;9.98;;;8.98;;
8401;SDS011;4238;48.404;9.498;2022-07-29T02:44:49;7.90;;;7.30;;
8401;SDS011;4238;48.404;9.498;2022-07-29T02:47:18;8.88;;;8.18;;
8401;SDS011;4238;48.404;9.498;2022-07-29T02:49:52;9.20;;;8.50;;
8401;SDS011;4238;48.404;9.498;2022-07-29T02:52:24;9.10;;;8.30;;
8401;SDS011;4238;48.404;9.498;2022-07-29T02:54:57;8.70;;;8.00;;
8401;SDS011;4238;48.404;9.498;2022-07-29T02:57:30;9.07;;;8.27;;
8401;SDS011;4238;48.404;9.498;2022-07-29T03:00:01;9.07;;;8.38;;
8401;SDS011;4238;48.404;9.498;2022-07-29T03:02:31;9.15;;;8.35;;
8401;SDS011;4238;48.404;9.498;2022-07-29T03:05:01;10.50;;;9.60;;
8401;SDS011;4238;48.404;9.498;2022-07-29T03:07:31;10.10;;;9.30;;
8401;SDS011;4238;48.404;9.498;2022-07-29T03:09:59;8.63;;;8.02;;
8401;SDS011;4238;48.404;9.498;2022-07-29T03:12:27;8.93;;;8.13;;
8401;SDS011;4238;48.404;9.498;2022-07-29T03:14:56;10.40;;;9.30;;
8401;SDS011;4238;48.404;9.498;2022-07-29T03:17:23;10.73;;;9.65;;
8401;SDS011;4238;48.404;9.498;2022-07-29T03:19:51;11.32;;;9.98;;
8401;SDS011;4238;48.404;9.498;2022-07-29T03:22:18;9.70;;;8.90;;
8401;SDS011;4238;48.404;9.498;2022-07-29T03:24:47;10.43;;;9.35;;
8401;SDS011;4238;48.404;9.498;2022-07-29T03:27:14;10.70;;;9.60;;
8401;SDS011;4238;48.404;9.498;2022-07-29T03:29:41;9.85;;;9.05;;
8401;SDS011;4238;48.404;9.498;2022-07-29T03:32:08;10.27;;;9.27;;
8401;SDS011;4238;48.404;9.498;2022-07-29T03:34:36;9.52;;;8.73;;
8401;SDS011;4238;48.404;9.498;2022-07-29T03:37:03;8.52;;;7.65;;
8401;SDS011;4238;48.404;9.498;2022-07-29T03:39:31;8.98;;;8.18;;
8401;SDS011;4238;48.404;9.498;2022-07-29T03:42:03;8.35;;;7.65;;
8401;SDS011;4238;48.404;9.498;2022-07-29T03:44:33;9.15;;;8.35;;
8401;SDS011;4238;48.404;9.498;2022-07-29T03:47:02;9.73;;;8.90;;
8401;SDS011;4238;48.404;9.498;2022-07-29T03:49:32;10.23;;;9.32;;
8401;SDS011;4238;48.404;9.498;2022-07-29T03:52:03;9.55;;;8.70;;
8401;SDS011;4238;48.404;9.498;2022-07-29T03:54:30;9.40;;;8.60;;
8401;SDS011;4238;48.404;9.498;2022-07-29T03:56:58;9.32;;;8.55;;
8401;SDS011;4238;48.404;9.498;2022-07-29T03:59:28;9.57;;;8.75;;
8401;SDS011;4238;48.404;9.498;2022-07-29T04:01:57;8.40;;;7.60;;
8401;SDS011;4238;48.404;9.498;2022-07-29T04:04:24;8.15;;;7.35;;
8401;SDS011;4238;48.404;9.498;2022-07-29T04:06:51;9.32;;;8.43;;
8401;SDS011;4238;48.404;9.498;2022-07-29T04:09:18;8.70;;;7.90;;
8401;SDS011;4238;48.404;9.498;2022-07-29T04:11:45;9.60;;;8.70;;
8401;SDS011;4238;48.404;9.498;2022-07-29T04:14:12;9.88;;;8.88;;
8401;SDS011;4238;48.404;9.498;2022-07-29T04:16:40;10.73;;;9.73;;
8401;SDS011;4238;48.404;9.498;2022-07-29T04:19:07;9.55;;;8.75;;
8401;SDS011;4238;48.404;9.498;2022-07-29T04:21:36;9.30;;;8.38;;
8401;SDS011;4238;48.404;9.498;2022-07-29T04:24:04;8.93;;;8.02;;
8401;SDS011;4238;48.404;9.498;2022-07-29T04:26:31;8.57;;;7.78;;
8401;SDS011;4238;48.404;9.498;2022-07-29T04:28:58;8.32;;;7.53;;
8401;SDS011;4238;48.404;9.498;2022-07-29T04:31:26;7.85;;;7.25;;
8401;SDS011;4238;48.404;9.498;2022-07-29T04:33:54;8.27;;;7.57;;
8401;SDS011;4238;48.404;9.498;2022-07-29T04:36:21;11.13;;;7.95;;
8401;SDS011;4238;48.404;9.498;2022-07-29T04:38:48;9.10;;;8.32;;
8401;SDS011;4238;48.404;9.498;2022-07-29T04:41:15;9.77;;;7.90;;
8401;SDS011;4238;48.404;9.498;2022-07-29T04:43:42;8.20;;;7.45;;
8401;SDS011;4238;48.404;9.498;2022-07-29T04:46:09;9.30;;;8.40;;
8401;SDS011;4238;48.404;9.498;2022-07-29T04:48:35;8.13;;;7.43;;
8401;SDS011;4238;48.404;9.498;2022-07-29T04:51:04;8.50;;;7.80;;
8401;SDS011;4238;48.404;9.498;2022-07-29T04:53:31;7.57;;;6.85;;
8401;SDS011;4238;48.404;9.498;2022-07-29T04:55:57;8.77;;;7.85;;
8401;SDS011;4238;48.404;9.498;2022-07-29T04:58:24;8.20;;;7.40;;
8401;SDS011;4238;48.404;9.498;2022-07-29T05:00:51;8.20;;;7.28;;
8401;SDS011;4238;48.404;9.498;2022-07-29T05:03:18;7.70;;;7.00;;
8401;SDS011;4238;48.404;9.498;2022-07-29T05:05:45;8.00;;;7.15;;
8401;SDS011;4238;48.404;9.498;2022-07-29T05:08:13;8.70;;;7.65;;
8401;SDS011;4238;48.404;9.498;2022-07-29T05:10:40;8.40;;;7.70;;
8401;SDS011;4238;48.404;9.498;2022-07-29T05:13:07;9.20;;;8.40;;
8401;SDS011;4238;48.404;9.498;2022-07-29T05:15:34;8.70;;;7.90;;
8401;SDS011;4238;48.404;9.498;2022-07-29T05:18:01;9.07;;;8.27;;
8401;SDS011;4238;48.404;9.498;2022-07-29T05:20:28;9.50;;;8.65;;
8401;SDS011;4238;48.404;9.498;2022-07-29T05:22:56;9.18;;;8.35;;
8401;SDS011;4238;48.404;9.498;2022-07-29T05:25:25;9.38;;;8.57;;
8401;SDS011;4238;48.404;9.498;2022-07-29T05:27:53;10.02;;;9.10;;
8401;SDS011;4238;48.404;9.498;2022-07-29T05:30:20;9.82;;;8.93;;
8401;SDS011;4238;48.404;9.498;2022-07-29T05:32:47;10.15;;;9.25;;
8401;SDS011;4238;48.404;9.498;2022-07-29T05:35:15;10.25;;;9.27;;
8401;SDS011;4238;48.404;9.498;2022-07-29T05:37:42;11.18;;;9.90;;
8401;SDS011;4238;48.404;9.498;2022-07-29T05:40:09;11.13;;;9.90;;
8401;SDS011;4238;48.404;9.498;2022-07-29T05:42:38;13.07;;;10.15;;
8401;SDS011;4238;48.404;9.498;2022-07-29T05:45:05;13.48;;;9.88;;
8401;SDS011;4238;48.404;9.498;2022-07-29T05:47:32;10.40;;;9.35;;
8401;SDS011;4238;48.404;9.498;2022-07-29T05:49:59;9.10;;;8.20;;
8401;SDS011;4238;48.404;9.498;2022-07-29T05:52:26;10.35;;;8.43;;
8401;SDS011;4238;48.404;9.498;2022-07-29T05:54:53;8.82;;;8.00;;
8401;SDS011;4238;48.404;9.498;2022-07-29T05:57:21;8.38;;;7.68;;
8401;SDS011;4238;48.404;9.498;2022-07-29T05:59:51;9.82;;;8.93;;
8401;SDS011;4238;48.404;9.498;2022-07-29T06:02:19;8.18;;;7.50;;
8401;SDS011;4238;48.404;9.498;2022-07-29T06:04:46;8.48;;;7.68;;
8401;SDS011;4238;48.404;9.498;2022-07-29T06:07:13;8.50;;;7.75;;
8401;SDS011;4238;48.404;9.498;2022-07-29T06:09:41;8.63;;;7.93;;
8401;SDS011;4238;48.404;9.498;2022-07-29T06:12:08;8.10;;;7.50;;
8401;SDS011;4238;48.404;9.498;2022-07-29T06:14:35;8.25;;;7.55;;
8401;SDS011;4238;48.404;9.498;2022-07-29T06:17:04;8.07;;;7.38;;
8401;SDS011;4238;48.404;9.498;2022-07-29T06:19:33;8.63;;;7.75;;
8401;SDS011;4238;48.404;9.498;2022-07-29T06:22:01;7.85;;;7.20;;
8401;SDS011;4238;48.404;9.498;2022-07-29T06:24:28;7.88;;;7.28;;
8401;SDS011;4238;48.404;9.498;2022-07-29T06:26:55;8.55;;;7.85;;
8401;SDS011;4238;48.404;9.498;2022-07-29T06:29:22;8.60;;;7.80;;
8401;SDS011;4238;48.404;9.498;2022-07-29T06:31:49;8.60;;;7.80;;
8401;SDS011;4238;48.404;9.498;2022-07-29T06:34:17;9.45;;;8.65;;
8401;SDS011;4238;48.404;9.498;2022-07-29T06:36:45;8.38;;;7.68;;
8401;SDS011;4238;48.404;9.498;2022-07-29T06:39:11;8.70;;;7.88;;
8401;SDS011;4238;48.404;9.498;2022-07-29T06:41:38;8.15;;;7.55;;
8401;SDS011;4238;48.404;9.498;2022-07-29T06:44:05;7.15;;;6.53;;
8401;SDS011;4238;48.404;9.498;2022-07-29T06:46:32;6.97;;;6.45;;
8401;SDS011;4238;48.404;9.498;2022-07-29T06:48:59;6.40;;;5.90;;
8401;SDS011;4238;48.404;9.498;2022-07-29T06:51:28;5.97;;;5.47;;
8401;SDS011;4238;48.404;9.498;2022-07-29T06:53:55;6.40;;;5.90;;
8401;SDS011;4238;48.404;9.498;2022-07-29T06:56:23;6.13;;;5.53;;
8401;SDS011;4238;48.404;9.498;2022-07-29T06:58:50;6.25;;;5.75;;
8401;SDS011;4238;48.404;9.498;2022-07-29T07:01:17;5.70;;;5.15;;
8401;SDS011;4238;48.404;9.498;2022-07-29T07:03:44;5.80;;;5.30;;
8401;SDS011;4238;48.404;9.498;2022-07-29T07:06:11;6.10;;;5.50;;
8401;SDS011;4238;48.404;9.498;2022-07-29T07:08:40;5.40;;;5.00;;
8401;SDS011;4238;48.404;9.498;2022-07-29T07:11:06;6.00;;;5.40;;
8401;SDS011;4238;48.404;9.498;2022-07-29T07:13:34;5.65;;;5.15;;
8401;SDS011;4238;48.404;9.498;2022-07-29T07:16:01;5.60;;;5.10;;
8401;SDS011;4238;48.404;9.498;2022-07-29T07:18:29;4.70;;;4.35;;
8401;SDS011;4238;48.404;9.498;2022-07-29T07:20:56;5.57;;;5.07;;
8401;SDS011;4238;48.404;9.498;2022-07-29T07:23:23;5.28;;;4.75;;
8401;SDS011;4238;48.404;9.498;2022-07-29T07:25:51;4.95;;;4.55;;
8401;SDS011;4238;48.404;9.498;2022-07-29T07:28:18;4.30;;;4.00;;
8401;SDS011;4238;48.404;9.498;2022-07-29T07:30:45;5.15;;;4.22;;
8401;SDS011;4238;48.404;9.498;2022-07-29T07:33:12;4.15;;;3.85;;
8401;SDS011;4238;48.404;9.498;2022-07-29T07:35:39;4.18;;;3.88;;
8401;SDS011;4238;48.404;9.498;2022-07-29T07:38:07;4.60;;;4.07;;
8401;SDS011;4238;48.404;9.498;2022-07-29T07:40:34;4.25;;;3.85;;
8401;SDS011;4238;48.404;9.498;2022-07-29T07:43:02;4.15;;;3.75;;
8401;SDS011;4238;48.404;9.498;2022-07-29T07:45:29;4.10;;;3.80;;
8401;SDS011;4238;48.404;9.498;2022-07-29T07:47:57;4.25;;;3.90;;
8401;SDS011;4238;48.404;9.498;2022-07-29T07:50:24;4.30;;;3.90;;
8401;SDS011;4238;48.404;9.498;2022-07-29T07:52:52;4.35;;;3.95;;
8401;SDS011;4238;48.404;9.498;2022-07-29T07:55:22;4.25;;;3.95;;
8401;SDS011;4238;48.404;9.498;2022-07-29T07:57:50;4.10;;;3.80;;
8401;SDS011;4238;48.404;9.498;2022-07-29T08:00:18;3.83;;;3.63;;
8401;SDS011;4238;48.404;9.498;2022-07-29T08:02:45;4.70;;;3.88;;
8401;SDS011;4238;48.404;9.498;2022-07-29T08:05:12;4.25;;;3.95;;
8401;SDS011;4238;48.404;9.498;2022-07-29T08:07:42;4.60;;;4.15;;
8401;SDS011;4238;48.404;9.498;2022-07-29T08:10:10;4.38;;;3.97;;
8401;SDS011;4238;48.404;9.498;2022-07-29T08:12:37;3.85;;;3.65;;
8401;SDS011;4238;48.404;9.498;2022-07-29T08:15:04;4.32;;;3.92;;
8401;SDS011;4238;48.404;9.498;2022-07-29T08:17:34;4.57;;;4.28;;
8401;SDS011;4238;48.404;9.498;2022-07-29T08:20:01;4.53;;;4.13;;
8401;SDS011;4238;48.404;9.498;2022-07-29T08:22:28;4.57;;;4.18;;
8401;SDS011;4238;48.404;9.498;2022-07-29T08:24:55;4.47;;;4.13;;
8401;SDS011;4238;48.404;9.498;2022-07-29T08:27:22;4.10;;;3.80;;
8401;SDS011;4238;48.404;9.498;2022-07-29T08:29:51;4.20;;;3.90;;
8401;SDS011;4238;48.404;9.498;2022-07-29T08:32:18;5.65;;;4.35;;
8401;SDS011;4238;48.404;9.498;2022-07-29T08:34:46;4.72;;;4.30;;
8401;SDS011;4238;48.404;9.498;2022-07-29T08:37:13;4.60;;;4.20;;
8401;SDS011;4238;48.404;9.498;2022-07-29T08:39:40;4.60;;;4.10;;
8401;SDS011;4238;48.404;9.498;2022-07-29T08:42:07;4.47;;;4.00;;
8401;SDS011;4238;48.404;9.498;2022-07-29T08:44:34;4.10;;;3.80;;
8401;SDS011;4238;48.404;9.498;2022-07-29T08:47:02;4.95;;;4.07;;
8401;SDS011;4238;48.404;9.498;2022-07-29T08:49:29;5.07;;;3.55;;
8401;SDS011;4238;48.404;9.498;2022-07-29T08:51:58;4.95;;;3.97;;
8401;SDS011;4238;48.404;9.498;2022-07-29T08:54:26;4.18;;;3.88;;
8401;SDS011;4238;48.404;9.498;2022-07-29T08:56:54;4.00;;;3.70;;
8401;SDS011;4238;48.404;9.498;2022-07-29T08:59:22;3.92;;;3.60;;
8401;SDS011;4238;48.404;9.498;2022-07-29T09:01:52;6.43;;;3.55;;
8401;SDS011;4238;48.404;9.498;2022-07-29T09:04:20;7.85;;;3.70;;
8401;SDS011;4238;48.404;9.498;2022-07-29T09:06:49;3.85;;;3.42;;
8401;SDS011;4238;48.404;9.498;2022-07-29T09:09:19;4.30;;;3.90;;
8401;SDS011;4238;48.404;9.498;2022-07-29T09:11:46;3.45;;;3.15;;
8401;SDS011;4238;48.404;9.498;2022-07-29T09:14:13;5.07;;;3.70;;
8401;SDS011;4238;48.404;9.498;2022-07-29T09:16:44;3.47;;;3.28;;
8401;SDS011;4238;48.404;9.498;2022-07-29T09:19:19;4.25;;;3.95;;
8401;SDS011;4238;48.404;9.498;2022-07-29T09:21:47;4.25;;;3.45;;
8401;SDS011;4238;48.404;9.498;2022-07-29T09:24:37;3.70;;;3.50;;
8401;SDS011;4238;48.404;9.498;2022-07-29T09:27:18;3.97;;;3.55;;
8401;SDS011;4238;48.404;9.498;2022-07-29T09:29:46;3.92;;;3.33;;
8401;SDS011;4238;48.404;9.498;2022-07-29T09:32:21;3.83;;;3.63;;
8401;SDS011;4238;48.404;9.498;2022-07-29T09:34:47;3.58;;;3.38;;
8401;SDS011;4238;48.404;9.498;2022-07-29T09:37:25;3.97;;;3.47;;
8401;SDS011;4238;48.404;9.498;2022-07-29T09:39:54;3.75;;;3.45;;
8401;SDS011;4238;48.404;9.498;2022-07-29T09:42:27;3.90;;;3.70;;
8401;SDS011;4238;48.404;9.498;2022-07-29T09:44:55;5.18;;;4.00;;
8401;SDS011;4238;48.404;9.498;2022-07-29T09:47:22;4.32;;;3.92;;
8401;SDS011;4238;48.404;9.498;2022-07-29T09:50:06;4.45;;;4.13;;
8401;SDS011;4238;48.404;9.498;2022-07-29T09:52:41;7.15;;;4.45;;
8401;SDS011;4238;48.404;9.498;2022-07-29T09:55:13;4.82;;;4.20;;
8401;SDS011;4238;48.404;9.498;2022-07-29T09:57:40;6.50;;;4.43;;
8401;SDS011;4238;48.404;9.498;2022-07-29T10:00:08;4.47;;;4.07;;
8401;SDS011;4238;48.404;9.498;2022-07-29T10:02:37;4.28;;;3.95;;
8401;SDS011;4238;48.404;9.498;2022-07-29T10:05:06;4.65;;;4.35;;
8401;SDS011;4238;48.404;9.498;2022-07-29T10:07:43;4.57;;;4.18;;
8401;SDS011;4238;48.404;9.498;2022-07-29T10:10:17;5.32;;;4.20;;
8401;SDS011;4238;48.404;9.498;2022-07-29T10:12:50;5.68;;;4.55;;
8401;SDS011;4238;48.404;9.498;2022-07-29T10:15:19;4.65;;;4.35;;
8401;SDS011;4238;48.404;9.498;2022-07-29T10:17:47;5.28;;;4.78;;
8401;SDS011;4238;48.404;9.498;2022-07-29T10:20:15;5.10;;;4.55;;
8401;SDS011;4238;48.404;9.498;2022-07-29T10:22:42;4.95;;;4.53;;
8401;SDS011;4238;48.404;9.498;2022-07-29T10:25:13;4.70;;;4.30;;
8401;SDS011;4238;48.404;9.498;2022-07-29T10:27:41;4.63;;;4.18;;
8401;SDS011;4238;48.404;9.498;2022-07-29T10:30:08;4.80;;;4.47;;
8401;SDS011;4238;48.404;9.498;2022-07-29T10:32:39;5.05;;;4.65;;
8401;SDS011;4238;48.404;9.498;2022-07-29T10:35:33;5.35;;;4.80;;
8401;SDS011;4238;48.404;9.498;2022-07-29T10:41:18;5.03;;;4.20;;
8401;SDS011;4238;48.404;9.498;2022-07-29T10:44:00;4.30;;;3.97;;
8401;SDS011;4238;48.404;9.498;2022-07-29T10:46:34;4.57;;;4.22;;
8401;SDS011;4238;48.404;9.498;2022-07-29T10:49:08;4.47;;;4.10;;
8401;SDS011;4238;48.404;9.498;2022-07-29T10:51:50;4.50;;;4.20;;
8401;SDS011;4238;48.404;9.498;2022-07-29T10:54:41;4.22;;;3.92;;
8401;SDS011;4238;48.404;9.498;2022-07-29T10:57:18;4.35;;;4.05;;
8401;SDS011;4238;48.404;9.498;2022-07-29T10:59:51;4.53;;;4.20;;
8401;SDS011;4238;48.404;9.498;2022-07-29T11:02:56;4.28;;;3.97;;
8401;SDS011;4238;48.404;9.498;2022-07-29T11:05:24;4.82;;;4.45;;
8401;SDS011;4238;48.404;9.498;2022-07-29T11:10:49;6.53;;;4.70;;
8401;SDS011;4238;48.404;9.498;2022-07-29T11:16:17;5.38;;;4.40;;
8401;SDS011;4238;48.404;9.498;2022-07-29T11:21:48;4.93;;;4.53;;
8401;SDS011;4238;48.404;9.498;2022-07-29T11:24:17;5.40;;;4.75;;
8401;SDS011;4238;48.404;9.498;2022-07-29T11:29:34;4.50;;;4.20;;
8401;SDS011;4238;48.404;9.498;2022-07-29T11:32:08;4.60;;;4.30;;
8401;SDS011;4238;48.404;9.498;2022-07-29T11:34:36;4.95;;;4.60;;
8401;SDS011;4238;48.404;9.498;2022-07-29T11:37:16;6.32;;;4.75;;
8401;SDS011;4238;48.404;9.498;2022-07-29T11:39:44;4.43;;;4.13;;
8401;SDS011;4238;48.404;9.498;2022-07-29T11:45:24;4.72;;;4.32;;
8401;SDS011;4238;48.404;9.498;2022-07-29T11:47:58;4.93;;;4.53;;
8401;SDS011;4238;48.404;9.498;2022-07-29T11:50:32;6.13;;;4.47;;
8401;SDS011;4238;48.404;9.498;2022-07-29T11:53:01;4.40;;;4.10;;
8401;SDS011;4238;48.404;9.498;2022-07-29T11:55:30;4.03;;;3.83;;
8401;SDS011;4238;48.404;9.498;2022-07-29T11:58:00;4.60;;;4.30;;
8401;SDS011;4238;48.404;9.498;2022-07-29T12:00:31;4.40;;;4.10;;
8401;SDS011;4238;48.404;9.498;2022-07-29T12:02:59;4.18;;;3.90;;
8401;SDS011;4238;48.404;9.498;2022-07-29T12:05:31;4.65;;;4.25;;
8401;SDS011;4238;48.404;9.498;2022-07-29T12:08:06;4.30;;;3.90;;
8401;SDS011;4238;48.404;9.498;2022-07-29T12:10:35;4.53;;;3.95;;
8401;SDS011;4238;48.404;9.498;2022-07-29T12:13:02;4.32;;;3.95;;
8401;SDS011;4238;48.404;9.498;2022-07-29T12:15:31;4.07;;;3.80;;
8401;SDS011;4238;48.404;9.498;2022-07-29T12:17:58;3.50;;;3.30;;
8401;SDS011;4238;48.404;9.498;2022-07-29T12:20:35;3.90;;;3.50;;
8401;SDS011;4238;48.404;9.498;2022-07-29T12:23:04;3.58;;;3.28;;
8401;SDS011;4238;48.404;9.498;2022-07-29T12:25:33;3.78;;;3.47;;
8401;SDS011;4238;48.404;9.498;2022-07-29T12:28:01;3.50;;;3.20;;
8401;SDS011;4238;48.404;9.498;2022-07-29T12:30:38;3.50;;;3.28;;
8401;SDS011;4238;48.404;9.498;2022-07-29T12:33:13;3.58;;;3.22;;
8401;SDS011;4238;48.404;9.498;2022-07-29T12:35:42;5.03;;;4.63;;
8401;SDS011;4238;48.404;9.498;2022-07-29T12:38:10;5.65;;;5.13;;
8401;SDS011;4238;48.404;9.498;2022-07-29T12:40:39;7.28;;;5.20;;
8401;SDS011;4238;48.404;9.498;2022-07-29T12:43:07;7.00;;;5.13;;
8401;SDS011;4238;48.404;9.498;2022-07-29T12:45:35;5.88;;;4.63;;
8401;SDS011;4238;48.404;9.498;2022-07-29T12:48:05;4.60;;;4.20;;
8401;SDS011;4238;48.404;9.498;2022-07-29T12:50:33;4.85;;;4.45;;
8401;SDS011;4238;48.404;9.498;2022-07-29T12:53:08;4.38;;;3.97;;
8401;SDS011;4238;48.404;9.498;2022-07-29T12:55:42;4.10;;;3.80;;
8401;SDS011;4238;48.404;9.498;2022-07-29T12:58:13;4.43;;;4.13;;
8401;SDS011;4238;48.404;9.498;2022-07-29T13:00:59;4.70;;;4.30;;
8401;SDS011;4238;48.404;9.498;2022-07-29T13:03:27;4.22;;;3.90;;
8401;SDS011;4238;48.404;9.498;2022-07-29T13:05:54;3.47;;;3.28;;
8401;SDS011;4238;48.404;9.498;2022-07-29T13:08:21;3.47;;;3.28;;
8401;SDS011;4238;48.404;9.498;2022-07-29T13:10:49;3.67;;;3.40;;
8401;SDS011;4238;48.404;9.498;2022-07-29T13:13:16;3.20;;;3.08;;
8401;SDS011;4238;48.404;9.498;2022-07-29T13:15:43;3.22;;;3.03;;
8401;SDS011;4238;48.404;9.498;2022-07-29T13:18:29;4.28;;;3.97;;
8401;SDS011;4238;48.404;9.498;2022-07-29T13:20:57;3.92;;;3.72;;
8401;SDS011;4238;48.404;9.498;2022-07-29T13:23:36;4.50;;;4.07;;
8401;SDS011;4238;48.404;9.498;2022-07-29T13:26:04;4.45;;;4.15;;
8401;SDS011;4238;48.404;9.498;2022-07-29T13:28:32;4.63;;;4.22;;
8401;SDS011;4238;48.404;9.498;2022-07-29T13:30:59;4.32;;;4.03;;
8401;SDS011;4238;48.404;9.498;2022-07-29T13:33:26;6.20;;;4.25;;
8401;SDS011;4238;48.404;9.498;2022-07-29T13:35:54;4.47;;;4.07;;
8401;SDS011;4238;48.404;9.498;2022-07-29T13:38:21;4.55;;;4.20;;
8401;SDS011;4238;48.404;9.498;2022-07-29T13:40:48;4.90;;;4.05;;
8401;SDS011;4238;48.404;9.498;2022-07-29T13:43:15;4.32;;;4.03;;
8401;SDS011;4238;48.404;9.498;2022-07-29T13:45:42;4.75;;;4.40;;
8401;SDS011;4238;48.404;9.498;2022-07-29T13:48:09;4.70;;;4.40;;
8401;SDS011;4238;48.404;9.498;2022-07-29T13:50:36;4.72;;;4.43;;
8401;SDS011;4238;48.404;9.498;2022-07-29T13:53:04;4.63;;;4.32;;
8401;SDS011;4238;48.404;9.498;2022-07-29T13:55:31;4.65;;;4.35;;
8401;SDS011;4238;48.404;9.498;2022-07-29T13:57:58;4.93;;;4.53;;
8401;SDS011;4238;48.404;9.498;2022-07-29T14:00:26;4.75;;;4.35;;
8401;SDS011;4238;48.404;9.498;2022-07-29T14:02:53;4.80;;;4.40;;
8401;SDS011;4238;48.404;9.498;2022-07-29T14:05:20;4.20;;;3.90;;
8401;SDS011;4238;48.404;9.498;2022-07-29T14:07:47;4.40;;;4.10;;
8401;SDS011;4238;48.404;9.498;2022-07-29T14:10:15;4.28;;;3.88;;
8401;SDS011;4238;48.404;9.498;2022-07-29T14:12:42;5.03;;;4.63;;
8401;SDS011;4238;48.404;9.498;2022-07-29T14:15:09;4.15;;;3.75;;
8401;SDS011;4238;48.404;9.498;2022-07-29T14:17:36;4.90;;;4.43;;
8401;SDS011;4238;48.404;9.498;2022-07-29T14:20:04;5.07;;;4.50;;
8401;SDS011;4238;48.404;9.498;2022-07-29T14:22:31;4.20;;;3.80;;
8401;SDS011;4238;48.404;9.498;2022-07-29T14:24:58;4.80;;;4.18;;
8401;SDS011;4238;48.404;9.498;2022-07-29T14:27:26;4.60;;;4.18;;
8401;SDS011;4238;48.404;9.498;2022-07-29T14:29:53;5.55;;;5.05;;
8401;SDS011;4238;48.404;9.498;2022-07-29T14:32:20;4.43;;;4.13;;
8401;SDS011;4238;48.404;9.498;2022-07-29T14:34:47;4.97;;;4.57;;
8401;SDS011;4238;48.404;9.498;2022-07-29T14:37:14;5.18;;;4.78;;
8401;SDS011;4238;48.404;9.498;2022-07-29T14:39:41;4.93;;;4.63;;
8401;SDS011;4238;48.404;9.498;2022-07-29T14:42:08;4.70;;;4.40;;
8401;SDS011;4238;48.404;9.498;2022-07-29T14:44:37;5.10;;;4.78;;
8401;SDS011;4238;48.404;9.498;2022-07-29T14:47:03;4.72;;;4.43;;
8401;SDS011;4238;48.404;9.498;2022-07-29T14:49:30;4.60;;;4.20;;
8401;SDS011;4238;48.404;9.498;2022-07-29T14:51:57;5.05;;;4.65;;
8401;SDS011;4238;48.404;9.498;2022-07-29T14:54:24;5.00;;;4.65;;
8401;SDS011;4238;48.404;9.498;2022-07-29T14:56:51;5.10;;;4.57;;
8401;SDS011;4238;48.404;9.498;2022-07-29T14:59:21;4.97;;;4.47;;
8401;SDS011;4238;48.404;9.498;2022-07-29T15:01:50;5.05;;;4.65;;
8401;SDS011;4238;48.404;9.498;2022-07-29T15:04:17;5.07;;;4.63;;
8401;SDS011;4238;48.404;9.498;2022-07-29T15:06:45;4.68;;;4.38;;
8401;SDS011;4238;48.404;9.498;2022-07-29T15:09:12;4.50;;;4.20;;
8401;SDS011;4238;48.404;9.498;2022-07-29T15:11:38;4.85;;;4.35;;
8401;SDS011;4238;48.404;9.498;2022-07-29T15:14:05;4.72;;;4.32;;
8401;SDS011;4238;48.404;9.498;2022-07-29T15:16:34;5.22;;;4.72;;
8401;SDS011;4238;48.404;9.498;2022-07-29T15:19:03;4.97;;;4.47;;
8401;SDS011;4238;48.404;9.498;2022-07-29T15:21:30;4.68;;;4.38;;
8401;SDS011;4238;48.404;9.498;2022-07-29T15:23:57;4.85;;;4.28;;
8401;SDS011;4238;48.404;9.498;2022-07-29T15:26:25;5.00;;;4.60;;
8401;SDS011;4238;48.404;9.498;2022-07-29T15:28:52;4.97;;;4.57;;
8401;SDS011;4238;48.404;9.498;2022-07-29T15:31:20;5.13;;;4.63;;
8401;SDS011;4238;48.404;9.498;2022-07-29T15:33:47;4.80;;;4.40;;
8401;SDS011;4238;48.404;9.498;2022-07-29T15:36:15;4.93;;;4.50;;
8401;SDS011;4238;48.404;9.498;2022-07-29T15:38:42;4.72;;;4.43;;
8401;SDS011;4238;48.404;9.498;2022-07-29T15:41:12;5.18;;;4.78;;
8401;SDS011;4238;48.404;9.498;2022-07-29T15:43:40;4.70;;;4.30;;
8401;SDS011;4238;48.404;9.498;2022-07-29T15:46:12;5.07;;;4.60;;
8401;SDS011;4238;48.404;9.498;2022-07-29T15:48:57;4.63;;;4.32;;